India Meteorological Department
Airport METARs
Date : 23-03-2017
Sl. # Airport METAR
1 Agartala VEAT 230600Z 00000KT 5000 HZ FEW020 30/18 Q1011 NOSIG =
2 Ahmedabad VAAH 230600Z 36005KT 5000 FU NSC 34/14 Q1013 NOSIG=
3 Amritsar VIAR 230530Z VRB03KT 5000 HZ FEW040 SCT100 26/17 Q1013 NOSIG=
4 Aurangabad VAAU 230500Z 00000KT 6000 NSC 31/12 Q1016 NOSIG=
5 Bangalore VOBL 230600Z 08005KT CAVOK 30/14 Q1018 NOSIG=
6 Baroda VABO 230500Z 31006KT 6000 NSC 32/12 Q1013 NOSIG=
7 Bhopal VABP 230500Z 18003KT 5000 HZ NSC 34/10 Q1015 NOSIG=
8 Bhubaneswar VEBS 230600Z 23001KT 5000 HZ NSC 35/15 Q1011 NOSIG =
9 Bhuntar VIBR 230600Z 00000KT 8000 FEW030 24/08 Q1018=
10 Chennai VOMM 230600Z 11005KT 6000 FEW020 33/22 Q1012 NOSIG=
11 Coimbatore VOCB 230600Z 05006KT 6000 SCT015 31/18 Q1015 NOSIG=
12 Colombo VCBI 230510Z 24006KT 200V290 9000 SCT018 30/23 Q1012 NOSIG=
13 Delhi VIDP 230600Z 29004KT 4000 HZ NSC 32/11 Q1012 NOSIG =
14 Dehradun VIDN 230500Z 22005KT 6000 NSC 28/11 Q1014 =
15 Gauhati VEGT 230530Z 03007KT 5000 HZ FEW020 31/15 Q1011 NOSIG=
16 Gaya VEGY 230600Z 36005KT 3000 HZ NSC 31/18 Q1010 NOSIG=
17 Gaggal VIGG 230530Z 26003KT 6000 FEW035 SCT080 26/12 Q1016=
18 Fursatganj VERB 230600Z VRB02KT 4000 HZ NSC 31/17 Q1010=
19 Hyderabad VOHS 230600Z 09009KT 6000 NSC 35/11 Q1015 NOSIG=
20 Imphal VEIM 230600Z 22004KT 5000 HZ FEW020 25/13 Q1014 NOSIG=
21 Indore VAID 230500Z 35008KT 6000 NSC 33/10 Q1016 NOSIG =
22 Jaipur VIJP 230530Z 30010KT 4000 HZ NSC 33/07 Q1014 NOSIG=
23 Kochi VOCI 230600Z NIL=
24 Kolkata VECC 230600Z 18009KT 3500 HZ NSC 33/19 Q1010 NOSIG=
25 Kozhikode VOCL 230600Z 00000KT 6000 SCT015 SCT018 33/24 Q1012 NOSIG=
26 Lucknow VILK 230530Z VRB02KT 2000 HZ NSC 31/20 Q1011 NOSIG=
27 Ludhiana VILD 230600Z 34002KT 3000 HZ NSC 30/14 Q1012=
28 Madurai VOMD 230600Z 07003KT 6000 FEW020 33/22 Q1014 NOSIG=
29 Mohanbari VEMN 230600Z 14003KT 6000 FEW025 29/15 Q1012 NOSIG =
30 Mumbai VABB 230600Z 29004KT 3000 FU NSC 34/22 Q1012 NOSIG=
31 Nagpur VANP 230500Z 14002KT 3000 HZ NSC 35/10 Q1014 NOSIG=
32 Patna VEPT 230530Z 05005KT 2000 FU NSC 28/20 Q1010 NOSIG =
33 Raipur VERP 230600Z 06003KT 5000 HZ NSC 37/16 Q1013 BECMG 6000=
34 Safdarjung VIDD 230600Z 27002KT 3000 HZ NSC 33/17 Q1012 NOSIG=
35 Shimla VISM 230500Z 27005KT 6000 NSC 24/03 Q1021=
36 Ranchi VERC 230600Z 28008KT 6000 NSC 33/10 Q1014 NOSIG =
37 Trichy VOTR 230600Z 03004KT 4000 HZ FEW016 32/20 Q1012 NOSIG=
38 Trivandrum VOTV 230600Z 26007KT 6000 FEW018 31/26 Q1011 NOSIG=
39 Udaipur VAUD 230600Z 00000KT 5000 HZ NSC 34/10 Q1015 NOSIG=
40 Varanasi VEBN 230530Z VRB01KT 2000 HZ NSC 30/19 Q1011=
41 Vizag VOVZ 230600Z 20004KT 6000 NSC 34/22 Q1011 NOSIG =
42 Male VRMM 230510Z NIL=
43 Gan VRMG 230600Z 02004KT 9999 FEW020 31/24 Q1012=
44 Kathmandu VNKT 230550Z 24005KT 5000 HZ FEW010 21/12 Q1018 NOSIG=
45 Dhaka VGHS 230600Z 19003KT 4000 HZ FEW015 SCT100 30/20 Q1010 NOSIG=
46 Colombo VCBI 230510Z 24006KT 200V290 9000 SCT018 30/23 Q1012 NOSIG=
47 Karachi OPKC 230525Z 27004KT 7000 FEW100 29/17 Q1014 NOSIG=
48 Lahore OPLA 230525Z 33008KT 4000 HZ FEW100 25/12 Q1013 A29.92=
49 Leh VILH 230430Z 30003KT 6000 SOCC FEW030 SCT060 BKN150 08/-03 Q1026 NOSIG=
50 Sri Nagar VISR 230430Z VRB02KT 6000 -RA SCT008 SCT015 BKN080 10/08 Q1025 NOSIG=
51 Jammu VIJU 230530Z 24004KT 5000 HZ FEW030 FEW030TCU BKN100 SCT 28/07 Q1012 BECMG 4000=
52 Jodhpur VIJO 230530Z VRB01KT 6000 SKC 32/14 Q1014 NOSIG=
53 Bhuj-Rudra VABJ 230530Z 29008KT 6000 FEW120 31/16 Q1014 NOSIG=
54 Gorakhpur VEGK 230530Z 13007KT 3000 HAZE SKC 27/19 Q1012 BECMG 4000 =
55 Agra VIAG 230500Z 17003KT 6000 SKC 32/15 Q1011 NOSIG=
56 Bagdogra VEBD 230530Z 04005KT 6000 FEW030 SCT120 29/18 Q1013 NOSIG=
57 Gwalior VIGR 230530Z 12003KT 6000 SKC 35/11 Q1012 NOSIG=
58 Pune VAPO 230530Z 09005KT 6000 SKC 35/07 Q1016 NOSIG=
59 Chandigarh VICG 230530Z 17009KT 4500 HZ FEW250 28/17 Q1013 BECMG 5000M=
60 Jamnagar VAJM 230530Z 31007KT 8000 SKC 28/21 Q1013 NOSIG=

 

--- End of List ---